createdAt,value
2018-09-23T00:00:07.965Z,13.07
2018-09-23T00:02:37.363Z,13.04
2018-09-23T00:05:07.236Z,13.00
2018-09-23T00:07:37.059Z,13.00
2018-09-23T00:10:06.755Z,13.00
2018-09-23T00:12:36.157Z,13.00
2018-09-23T00:15:05.846Z,13.07
2018-09-23T00:17:35.186Z,13.09
2018-09-23T00:20:04.927Z,13.14
2018-09-23T00:22:34.475Z,13.10
2018-09-23T00:25:03.785Z,13.02
2018-09-23T00:27:33.292Z,13.03
2018-09-23T00:30:03.207Z,13.04
2018-09-23T00:32:32.636Z,13.04
2018-09-23T00:35:02.042Z,13.06
2018-09-23T00:37:32.026Z,13.11
2018-09-23T00:40:01.404Z,13.06
2018-09-23T00:42:30.862Z,13.06
2018-09-23T00:45:00.722Z,13.06
2018-09-23T00:47:30.083Z,13.12
2018-09-23T00:49:59.480Z,13.06
2018-09-23T00:52:29.297Z,13.14
2018-09-23T00:54:58.901Z,13.06
2018-09-23T00:57:28.306Z,13.11
2018-09-23T00:59:58.237Z,13.06
2018-09-23T01:02:27.858Z,13.14
2018-09-23T01:04:57.271Z,13.11
2018-09-23T01:07:27.255Z,13.20
2018-09-23T01:09:56.880Z,13.13
2018-09-23T01:12:26.416Z,13.12
2018-09-23T01:14:56.037Z,13.12
2018-09-23T01:17:25.534Z,13.12
2018-09-23T01:19:54.966Z,13.10
2018-09-23T01:22:24.242Z,13.07
2018-09-23T01:24:54.187Z,13.03
2018-09-23T01:27:23.723Z,13.07
2018-09-23T01:29:53.578Z,13.08
2018-09-23T01:32:23.205Z,13.03
2018-09-23T01:34:53.134Z,13.02
2018-09-23T01:37:22.672Z,13.02
2018-09-23T01:39:52.033Z,12.97
2018-09-23T01:42:21.482Z,12.95
2018-09-23T01:44:51.164Z,12.92
2018-09-23T01:47:20.861Z,12.97
2018-09-23T01:49:50.798Z,13.02
2018-09-23T01:52:20.243Z,13.06
2018-09-23T01:54:49.473Z,13.00
2018-09-23T01:57:18.711Z,12.97
2018-09-23T01:59:48.454Z,12.91
2018-09-23T02:02:18.527Z,12.90
2018-09-23T02:04:48.433Z,12.90
2018-09-23T02:07:18.653Z,12.93
2018-09-23T02:09:48.177Z,12.95
2018-09-23T02:12:17.769Z,12.97
2018-09-23T02:14:47.655Z,12.88
2018-09-23T02:17:17.069Z,12.93
2018-09-23T02:19:46.488Z,12.94
2018-09-23T02:22:16.009Z,12.91
2018-09-23T02:24:45.421Z,12.92
2018-09-23T02:27:15.386Z,12.91
2018-09-23T02:29:45.188Z,12.97
2018-09-23T02:32:14.530Z,13.03
2018-09-23T02:34:43.850Z,12.96
2018-09-23T02:37:13.369Z,12.94
2018-09-23T02:39:43.050Z,12.99
2018-09-23T02:42:12.724Z,12.97
2018-09-23T02:44:42.527Z,12.94
2018-09-23T02:47:12.299Z,12.91
2018-09-23T02:49:42.275Z,12.96
2018-09-23T02:52:12.180Z,12.87
2018-09-23T02:54:41.841Z,12.93
2018-09-23T02:57:11.930Z,12.92
2018-09-23T02:59:41.611Z,12.94
2018-09-23T03:02:11.481Z,12.93
2018-09-23T03:04:40.951Z,12.90
2018-09-23T03:07:10.461Z,12.96
2018-09-23T03:09:40.301Z,12.94
2018-09-23T03:12:09.691Z,12.96
2018-09-23T03:14:39.135Z,12.97
2018-09-23T03:17:08.719Z,12.95
2018-09-23T03:19:38.238Z,12.93
2018-09-23T03:22:07.714Z,12.97
2018-09-23T03:24:36.972Z,12.88
2018-09-23T03:27:06.456Z,12.94
2018-09-23T03:29:36.391Z,12.94
2018-09-23T03:32:05.829Z,12.96
2018-09-23T03:34:35.417Z,12.92
2018-09-23T03:37:05.013Z,12.96
2018-09-23T03:39:34.396Z,12.99
2018-09-23T03:42:03.905Z,12.93
2018-09-23T03:44:33.595Z,12.87
2018-09-23T03:47:03.241Z,12.94
2018-09-23T03:49:32.622Z,12.92
2018-09-23T03:52:02.929Z,12.95
2018-09-23T03:54:32.231Z,12.91
2018-09-23T03:57:01.566Z,12.99
2018-09-23T03:59:31.272Z,12.87
2018-09-23T04:02:00.801Z,12.90
2018-09-23T04:04:30.355Z,12.90
2018-09-23T04:07:00.038Z,12.95
2018-09-23T04:09:29.517Z,12.96
2018-09-23T04:11:58.854Z,12.99
2018-09-23T04:14:28.417Z,12.94
2018-09-23T04:16:57.720Z,12.86
2018-09-23T04:19:27.110Z,12.84
2018-09-23T04:21:56.695Z,12.90
2018-09-23T04:24:26.092Z,12.85
2018-09-23T04:26:55.595Z,12.88
2018-09-23T04:29:25.332Z,12.88
2018-09-23T04:31:55.072Z,12.90
2018-09-23T04:34:24.799Z,12.89
2018-09-23T04:36:54.394Z,12.86
2018-09-23T04:39:24.235Z,12.94
2018-09-23T04:41:53.458Z,12.94
2018-09-23T04:44:23.316Z,12.99
2018-09-23T04:46:53.061Z,13.02
2018-09-23T04:49:22.662Z,13.00
2018-09-23T04:51:52.209Z,13.07
2018-09-23T04:54:21.671Z,13.05
2018-09-23T04:56:51.121Z,12.99
2018-09-23T04:59:20.894Z,13.06
2018-09-23T05:01:50.234Z,13.07
2018-09-23T05:04:19.556Z,13.08
2018-09-23T05:06:49.365Z,13.11
2018-09-23T05:09:19.018Z,13.08
2018-09-23T05:11:48.484Z,13.02
2018-09-23T05:14:18.176Z,13.10
2018-09-23T05:16:48.227Z,13.08
2018-09-23T05:19:17.708Z,13.08
2018-09-23T05:21:47.337Z,13.09
2018-09-23T05:24:16.929Z,13.08
2018-09-23T05:26:46.446Z,13.12
2018-09-23T05:29:16.437Z,13.15
2018-09-23T05:31:46.069Z,13.16
2018-09-23T05:34:15.488Z,13.15
2018-09-23T05:36:46.098Z,13.22
2018-09-23T05:39:15.495Z,13.22
2018-09-23T05:41:45.636Z,13.13
2018-09-23T05:44:15.649Z,13.14
2018-09-23T05:46:44.930Z,13.17
2018-09-23T05:49:14.688Z,13.07
2018-09-23T05:51:44.264Z,13.11
2018-09-23T05:54:13.839Z,13.07
2018-09-23T05:56:43.068Z,13.07
2018-09-23T05:59:13.379Z,13.11
2018-09-23T06:01:43.259Z,13.10
2018-09-23T06:04:13.898Z,13.11
2018-09-23T06:06:44.759Z,13.13
2018-09-23T06:09:14.250Z,13.20
2018-09-23T06:11:43.975Z,13.22
2018-09-23T06:14:13.469Z,13.14
2018-09-23T06:16:42.912Z,13.12
2018-09-23T06:19:12.449Z,13.09
2018-09-23T06:21:41.864Z,13.04
2018-09-23T06:24:11.371Z,13.04
2018-09-23T06:26:40.914Z,13.04
2018-09-23T06:29:10.213Z,13.16
2018-09-23T06:31:39.712Z,13.14
2018-09-23T06:34:09.597Z,13.17
2018-09-23T06:36:38.951Z,13.27
2018-09-23T06:39:09.181Z,13.27
2018-09-23T06:41:39.714Z,13.28
2018-09-23T06:44:09.320Z,13.23
2018-09-23T06:46:39.299Z,13.29
2018-09-23T06:49:08.892Z,13.27
2018-09-23T06:51:39.418Z,13.23
2018-09-23T06:54:08.908Z,13.23
2018-09-23T06:56:39.045Z,13.26
2018-09-23T06:59:08.755Z,13.27
2018-09-23T07:01:38.199Z,13.28
2018-09-23T07:04:08.327Z,13.29
2018-09-23T07:06:38.570Z,13.30
2018-09-23T07:09:08.422Z,13.26
2018-09-23T07:11:37.902Z,13.27
2018-09-23T07:14:07.358Z,13.33
2018-09-23T07:16:37.234Z,13.31
2018-09-23T07:19:06.520Z,13.33
2018-09-23T07:21:35.947Z,13.30
2018-09-23T07:24:05.716Z,13.26
2018-09-23T07:26:35.191Z,13.27
2018-09-23T07:29:05.158Z,13.36
2018-09-23T07:31:34.758Z,13.38
2018-09-23T07:34:04.138Z,13.40
2018-09-23T07:36:33.559Z,13.36
2018-09-23T07:39:03.174Z,13.37
2018-09-23T07:41:32.637Z,13.41
2018-09-23T07:44:01.855Z,13.38
2018-09-23T07:46:31.339Z,13.33
2018-09-23T07:49:00.874Z,13.43
2018-09-23T07:51:30.531Z,13.46
2018-09-23T07:54:00.221Z,13.59
2018-09-23T07:56:29.760Z,13.57
2018-09-23T07:58:59.386Z,13.66
2018-09-23T08:01:28.964Z,13.54
2018-09-23T08:03:58.588Z,13.55
2018-09-23T08:06:28.001Z,13.61
2018-09-23T08:08:57.729Z,13.62
2018-09-23T08:11:27.427Z,13.59
2018-09-23T08:13:57.118Z,13.64
2018-09-23T08:16:26.787Z,13.55
2018-09-23T08:18:56.502Z,13.60
2018-09-23T08:21:25.932Z,13.62
2018-09-23T08:23:55.995Z,13.67
2018-09-23T08:26:25.805Z,13.68
2018-09-23T08:28:55.395Z,13.74
2018-09-23T08:31:25.231Z,13.91
2018-09-23T08:33:55.341Z,13.79
2018-09-23T08:36:24.840Z,13.76
2018-09-23T08:38:54.671Z,13.83
2018-09-23T08:41:24.053Z,13.87
2018-09-23T08:43:53.849Z,13.89
2018-09-23T08:46:24.229Z,14.46
2018-09-23T08:48:54.322Z,14.50
2018-09-23T08:51:24.495Z,13.93
2018-09-23T08:53:54.027Z,13.87
2018-09-23T08:56:23.738Z,13.94
2018-09-23T08:58:53.174Z,13.93
2018-09-23T09:01:23.030Z,13.90
2018-09-23T09:03:52.561Z,13.92
2018-09-23T09:06:22.719Z,13.84
2018-09-23T09:08:52.809Z,13.87
2018-09-23T09:11:22.767Z,13.87
2018-09-23T09:13:52.450Z,13.87
2018-09-23T09:16:22.056Z,13.88
2018-09-23T09:18:52.056Z,14.00
2018-09-23T09:21:21.864Z,14.06
2018-09-23T09:23:51.594Z,14.08
2018-09-23T09:26:21.114Z,14.10
2018-09-23T09:28:50.678Z,14.18
2018-09-23T09:31:20.358Z,14.12
2018-09-23T09:33:50.337Z,14.28
2018-09-23T09:36:19.881Z,14.50
2018-09-23T09:38:49.580Z,14.74
2018-09-23T09:41:19.375Z,14.96
2018-09-23T09:43:49.160Z,14.95
2018-09-23T09:46:20.160Z,14.68
2018-09-23T09:48:49.681Z,14.66
2018-09-23T09:51:19.781Z,14.65
2018-09-23T09:53:49.318Z,14.72
2018-09-23T09:56:18.799Z,14.58
2018-09-23T09:58:48.627Z,14.36
2018-09-23T10:01:18.885Z,14.26
2018-09-23T10:03:48.618Z,14.21
2018-09-23T10:06:18.344Z,14.36
2018-09-23T10:08:47.821Z,14.42
2018-09-23T10:11:17.611Z,14.81
2018-09-23T10:13:47.153Z,14.93
2018-09-23T10:16:16.707Z,14.76
2018-09-23T10:18:46.488Z,14.61
2018-09-23T10:21:16.684Z,14.75
2018-09-23T10:23:46.177Z,14.03
2018-09-23T10:26:16.359Z,14.87
2018-09-23T10:28:45.936Z,15.02
2018-09-23T10:31:15.797Z,15.04
2018-09-23T10:33:45.226Z,14.85
2018-09-23T10:36:15.022Z,14.67
2018-09-23T10:38:44.695Z,14.74
2018-09-23T10:41:14.051Z,14.63
2018-09-23T10:43:43.990Z,14.48
2018-09-23T10:46:13.598Z,14.27
2018-09-23T10:48:42.874Z,14.56
2018-09-23T10:51:12.533Z,14.74
2018-09-23T10:53:41.890Z,14.85
2018-09-23T10:56:11.409Z,15.02
2018-09-23T10:58:41.031Z,14.83
2018-09-23T11:01:10.397Z,14.89
2018-09-23T11:03:39.658Z,15.13
2018-09-23T11:06:09.355Z,14.98
2018-09-23T11:08:38.825Z,14.97
2018-09-23T11:11:08.815Z,14.99
2018-09-23T11:13:38.416Z,14.99
2018-09-23T11:16:07.855Z,14.96
2018-09-23T11:18:37.338Z,15.16
2018-09-23T11:21:07.679Z,15.02
2018-09-23T11:23:36.932Z,15.18
2018-09-23T11:26:06.500Z,14.62
2018-09-23T11:28:36.024Z,15.36
2018-09-23T11:31:05.433Z,15.24
2018-09-23T11:33:34.862Z,15.12
2018-09-23T11:36:04.661Z,15.19
2018-09-23T11:38:34.023Z,14.91
2018-09-23T11:41:04.004Z,15.11
2018-09-23T11:43:33.846Z,15.07
2018-09-23T11:46:03.689Z,15.09
2018-09-23T11:48:33.058Z,15.14
2018-09-23T11:51:02.544Z,15.21
2018-09-23T11:53:31.858Z,15.31
2018-09-23T11:56:01.393Z,15.45
2018-09-23T11:58:31.273Z,15.23
2018-09-23T12:01:00.629Z,15.08
2018-09-23T12:03:30.206Z,15.18
2018-09-23T12:05:59.888Z,15.16
2018-09-23T12:08:29.442Z,15.03
2018-09-23T12:10:59.247Z,15.17
2018-09-23T12:13:28.979Z,15.31
2018-09-23T12:15:58.453Z,15.48
2018-09-23T12:18:28.335Z,15.48
2018-09-23T12:20:58.022Z,15.38
2018-09-23T12:23:27.309Z,15.49
2018-09-23T12:25:56.746Z,15.57
2018-09-23T12:28:26.203Z,15.42
2018-09-23T12:30:55.697Z,15.60
2018-09-23T12:33:25.232Z,15.69
2018-09-23T12:35:59.145Z,15.55
2018-09-23T12:38:28.626Z,15.51
2018-09-23T12:40:58.107Z,15.33
2018-09-23T12:43:27.820Z,15.52
2018-09-23T12:45:57.687Z,15.45
2018-09-23T12:48:27.345Z,15.41
2018-09-23T12:50:57.093Z,15.53
2018-09-23T12:53:26.984Z,15.47
2018-09-23T12:55:56.607Z,15.50
2018-09-23T12:58:26.223Z,15.44
2018-09-23T13:00:55.572Z,15.41
2018-09-23T13:03:25.530Z,15.21
2018-09-23T13:05:55.317Z,15.24
2018-09-23T13:08:24.983Z,15.48
2018-09-23T13:10:54.756Z,15.81
2018-09-23T13:13:24.390Z,15.69
2018-09-23T13:15:54.263Z,15.59
2018-09-23T13:18:23.843Z,15.61
2018-09-23T13:20:53.630Z,15.29
2018-09-23T13:23:23.529Z,15.27
2018-09-23T13:25:53.206Z,15.33
2018-09-23T13:28:23.035Z,15.41
2018-09-23T13:30:52.623Z,15.38
2018-09-23T13:33:23.397Z,15.41
2018-09-23T13:35:54.168Z,15.27
2018-09-23T13:38:23.790Z,15.24
2018-09-23T13:40:53.392Z,15.17
2018-09-23T13:43:23.655Z,15.06
2018-09-23T13:45:53.686Z,15.25
2018-09-23T13:48:24.894Z,15.22
2018-09-23T13:50:55.101Z,15.15
2018-09-23T13:53:25.111Z,15.16
2018-09-23T13:55:54.922Z,14.94
2018-09-23T13:58:24.706Z,15.04
2018-09-23T14:00:54.584Z,14.66
2018-09-23T14:03:24.469Z,14.86
2018-09-23T14:05:54.599Z,14.66
2018-09-23T14:08:24.713Z,14.74
2018-09-23T14:10:54.489Z,14.84
2018-09-23T14:13:24.751Z,14.94
2018-09-23T14:15:54.455Z,15.03
2018-09-23T14:18:25.688Z,15.04
2018-09-23T14:20:55.395Z,14.98
2018-09-23T14:23:25.426Z,15.10
2018-09-23T14:25:55.508Z,15.06
2018-09-23T14:28:25.679Z,14.92
2018-09-23T14:30:55.204Z,14.98
2018-09-23T14:33:25.307Z,15.05
2018-09-23T14:35:55.211Z,15.01
2018-09-23T14:38:25.900Z,15.01
2018-09-23T14:40:55.774Z,14.97
2018-09-23T14:43:26.050Z,15.01
2018-09-23T14:45:55.926Z,14.82
2018-09-23T14:48:26.325Z,14.72
2018-09-23T14:50:56.432Z,14.63
2018-09-23T14:53:26.231Z,14.69
2018-09-23T14:55:56.133Z,14.70
2018-09-23T14:58:26.391Z,14.05
2018-09-23T15:00:55.879Z,14.50
2018-09-23T15:03:25.734Z,14.59
2018-09-23T15:05:55.242Z,14.61
2018-09-23T15:08:25.119Z,14.59
2018-09-23T15:10:55.447Z,14.66
2018-09-23T15:13:26.087Z,14.71
2018-09-23T15:15:56.044Z,14.63
2018-09-23T15:18:29.222Z,14.68
2018-09-23T15:20:58.913Z,14.62
2018-09-23T15:23:28.364Z,14.66
2018-09-23T15:25:58.029Z,14.65
2018-09-23T15:28:27.583Z,14.64
2018-09-23T15:30:57.399Z,14.62
2018-09-23T15:33:27.528Z,14.54
2018-09-23T15:35:57.187Z,14.54
2018-09-23T15:38:26.980Z,14.44
2018-09-23T15:40:56.479Z,14.35
2018-09-23T15:43:26.696Z,14.42
2018-09-23T15:45:56.611Z,13.76
2018-09-23T15:48:26.451Z,14.49
2018-09-23T15:50:56.328Z,14.43
2018-09-23T15:53:26.020Z,14.45
2018-09-23T15:55:55.619Z,14.55
2018-09-23T15:58:25.498Z,14.57
2018-09-23T16:00:55.021Z,14.27
2018-09-23T16:03:25.032Z,14.26
2018-09-23T16:05:58.185Z,14.19
2018-09-23T16:08:27.993Z,14.15
2018-09-23T16:10:58.624Z,14.15
2018-09-23T16:13:28.502Z,14.20
2018-09-23T16:16:00.282Z,14.13
2018-09-23T16:18:30.832Z,14.15
2018-09-23T16:21:00.579Z,14.20
2018-09-23T16:23:30.375Z,14.20
2018-09-23T16:25:59.739Z,14.15
2018-09-23T16:28:29.275Z,13.99
2018-09-23T16:30:59.824Z,13.97
2018-09-23T16:33:29.474Z,14.05
2018-09-23T16:35:59.379Z,14.03
2018-09-23T16:38:30.235Z,14.04
2018-09-23T16:40:59.641Z,13.97
2018-09-23T16:43:29.348Z,13.98
2018-09-23T16:45:59.340Z,13.95
2018-09-23T16:48:28.770Z,13.92
2018-09-23T16:50:58.583Z,13.85
2018-09-23T16:53:28.702Z,13.89
2018-09-23T16:55:58.414Z,13.88
2018-09-23T16:58:28.698Z,13.82
2018-09-23T17:00:58.991Z,13.76
2018-09-23T17:03:28.538Z,13.81
2018-09-23T17:05:58.085Z,13.78
2018-09-23T17:08:28.277Z,13.73
2018-09-23T17:10:58.726Z,13.71
2018-09-23T17:13:28.531Z,13.69
2018-09-23T17:15:58.414Z,13.68
2018-09-23T17:18:28.187Z,13.68
2018-09-23T17:20:57.635Z,13.69
2018-09-23T17:23:27.398Z,13.60
2018-09-23T17:25:56.998Z,13.62
2018-09-23T17:28:27.287Z,13.60
2018-09-23T17:30:56.702Z,13.60
2018-09-23T17:33:26.313Z,13.55
2018-09-23T17:35:55.880Z,13.54
2018-09-23T17:38:26.957Z,13.41
2018-09-23T17:40:57.092Z,13.40
2018-09-23T17:43:27.868Z,13.34
2018-09-23T17:45:57.849Z,13.42
2018-09-23T17:48:28.076Z,13.42
2018-09-23T17:50:57.792Z,13.36
2018-09-23T17:53:27.700Z,13.32
2018-09-23T17:55:57.725Z,13.32
2018-09-23T17:58:27.502Z,13.28
2018-09-23T18:00:57.705Z,13.18
2018-09-23T18:03:27.432Z,13.12
2018-09-23T18:05:57.259Z,13.18
2018-09-23T18:08:27.192Z,13.23
2018-09-23T18:10:56.481Z,13.25
2018-09-23T18:13:25.766Z,13.25
2018-09-23T18:15:55.913Z,13.24
2018-09-23T18:18:25.766Z,13.20
2018-09-23T18:20:55.557Z,13.20
2018-09-23T18:23:25.425Z,13.20
2018-09-23T18:25:55.244Z,13.16
2018-09-23T18:28:24.731Z,13.05
2018-09-23T18:30:54.683Z,12.87
2018-09-23T18:33:24.311Z,12.82
2018-09-23T18:35:54.259Z,12.77
2018-09-23T18:38:24.349Z,12.68
2018-09-23T18:40:54.170Z,12.49
2018-09-23T18:43:24.192Z,12.40
2018-09-23T18:45:54.213Z,12.34
2018-09-23T18:48:23.935Z,12.20
2018-09-23T18:50:53.870Z,12.13
2018-09-23T18:53:24.886Z,12.05
2018-09-23T18:55:55.161Z,12.03
2018-09-23T18:58:25.108Z,11.95
2018-09-23T19:00:54.689Z,11.83
2018-09-23T19:03:24.332Z,11.79
2018-09-23T19:05:54.097Z,11.72
2018-09-23T19:08:24.646Z,11.68
2018-09-23T19:10:54.192Z,11.61
2018-09-23T19:13:28.773Z,11.54
2018-09-23T19:16:02.885Z,11.48
2018-09-23T19:18:32.542Z,11.43
2018-09-23T19:21:01.952Z,11.42
2018-09-23T19:23:32.323Z,11.38
2018-09-23T19:26:02.017Z,11.33
2018-09-23T19:28:31.475Z,11.26
2018-09-23T19:31:00.773Z,11.24
2018-09-23T19:33:30.789Z,11.22
2018-09-23T19:36:00.441Z,11.25
2018-09-23T19:38:30.109Z,11.26
2018-09-23T19:41:00.947Z,11.23
2018-09-23T19:43:30.634Z,11.29
2018-09-23T19:46:00.135Z,11.44
2018-09-23T19:48:29.939Z,11.62
2018-09-23T19:50:59.640Z,11.71
2018-09-23T19:53:29.311Z,11.14
2018-09-23T19:55:59.271Z,10.65
2018-09-23T19:58:29.025Z,10.40
2018-09-23T20:00:58.479Z,10.25
2018-09-23T20:03:28.120Z,10.25
2018-09-23T20:05:57.542Z,10.14
2018-09-23T20:08:27.185Z,10.04
2018-09-23T20:10:58.264Z,10.28
2018-09-23T20:13:27.774Z,10.29
2018-09-23T20:15:57.312Z,10.32
2018-09-23T20:18:26.923Z,10.34
2018-09-23T20:20:56.417Z,10.46
2018-09-23T20:23:26.020Z,10.51
2018-09-23T20:25:55.876Z,10.59
2018-09-23T20:28:25.602Z,10.63
2018-09-23T20:30:55.196Z,10.70
2018-09-23T20:33:24.878Z,10.80
2018-09-23T20:35:54.494Z,10.80
2018-09-23T20:38:24.904Z,10.87
2018-09-23T20:40:55.110Z,10.93
2018-09-23T20:43:25.165Z,10.96
2018-09-23T20:45:54.863Z,10.95
2018-09-23T20:48:25.813Z,10.34
2018-09-23T20:50:55.289Z,10.84
2018-09-23T20:53:25.006Z,10.85
2018-09-23T20:55:54.706Z,10.71
2018-09-23T20:58:24.429Z,10.67
2018-09-23T21:00:54.340Z,10.69
2018-09-23T21:03:25.117Z,10.73
2018-09-23T21:05:54.949Z,10.02
2018-09-23T21:08:24.511Z,10.71
2018-09-23T21:10:54.140Z,10.83
2018-09-23T21:13:24.131Z,10.94
2018-09-23T21:15:53.802Z,10.81
2018-09-23T21:18:23.225Z,10.64
2018-09-23T21:20:53.287Z,10.59
2018-09-23T21:23:22.999Z,10.58
2018-09-23T21:25:52.524Z,10.62
2018-09-23T21:28:22.455Z,10.67
2018-09-23T21:30:52.305Z,10.73
2018-09-23T21:33:22.430Z,10.71
2018-09-23T21:35:52.317Z,10.73
2018-09-23T21:38:22.249Z,10.66
2018-09-23T21:40:51.905Z,10.64
2018-09-23T21:43:21.786Z,10.67
2018-09-23T21:45:51.447Z,10.64
2018-09-23T21:48:21.327Z,10.65
2018-09-23T21:50:51.348Z,10.68
2018-09-23T21:53:20.897Z,10.67
2018-09-23T21:55:50.236Z,10.66
2018-09-23T21:58:19.688Z,10.67
2018-09-23T22:00:49.303Z,10.59
2018-09-23T22:03:18.713Z,10.46
2018-09-23T22:05:48.203Z,10.43
2018-09-23T22:08:17.777Z,10.38
2018-09-23T22:10:47.089Z,10.35
2018-09-23T22:13:16.783Z,10.30
2018-09-23T22:15:46.447Z,10.23
2018-09-23T22:18:15.597Z,10.16
2018-09-23T22:20:44.876Z,10.02
2018-09-23T22:23:14.197Z,9.91
2018-09-23T22:25:43.674Z,9.79
2018-09-23T22:28:13.201Z,9.78
2018-09-23T22:30:42.676Z,9.74
2018-09-23T22:33:12.139Z,9.70
2018-09-23T22:35:41.686Z,9.69
2018-09-23T22:38:11.123Z,9.78
2018-09-23T22:40:40.412Z,9.74
2018-09-23T22:43:10.162Z,9.73
2018-09-23T22:45:39.519Z,9.77
2018-09-23T22:48:08.918Z,9.77
2018-09-23T22:50:38.691Z,9.84
2018-09-23T22:53:08.228Z,9.81
2018-09-23T22:55:37.470Z,9.83
2018-09-23T22:58:07.073Z,9.85
2018-09-23T23:00:36.405Z,9.77
2018-09-23T23:03:05.795Z,9.73
2018-09-23T23:05:35.322Z,9.55
2018-09-23T23:08:04.853Z,9.66
2018-09-23T23:10:34.244Z,9.69
2018-09-23T23:13:03.627Z,9.67
2018-09-23T23:15:32.953Z,9.64
2018-09-23T23:18:02.474Z,9.62
2018-09-23T23:20:31.873Z,9.60
2018-09-23T23:23:01.141Z,9.65
2018-09-23T23:25:30.682Z,9.66
2018-09-23T23:28:00.376Z,9.67
2018-09-23T23:30:29.745Z,9.62
2018-09-23T23:32:59.113Z,9.63
2018-09-23T23:35:28.816Z,9.62
2018-09-23T23:37:58.218Z,9.63
2018-09-23T23:40:27.600Z,9.57
2018-09-23T23:42:57.336Z,9.54
2018-09-23T23:45:26.705Z,9.55
2018-09-23T23:47:56.002Z,9.59
2018-09-23T23:50:25.649Z,9.59
2018-09-23T23:52:55.285Z,9.56
2018-09-23T23:55:24.716Z,9.57
2018-09-23T23:57:54.602Z,9.61
